ESGGESOK

Guest
Details From ESGG - Goteborg Landvetter
To ESOK - Karlstad
Flight Number -
Tags generated
Created
Modified
Stats Distance 112 nm / 208 km
Max Altitude 13,200 ft / 4,023 m
Waypoints 3
Social Downloads 0
Likes 0
Share VATSIM

Download

Looking for another format? Having issues loading an existing format? Contact us
Advertisement - Login to hide

Notes

Basic altitude profile: - Ascent Rate: 2500ft/min - Ascent Speed: 250kts - Cruise Altitude: 35000ft - Cruise Speed: 420kts - Descent Rate: 1500ft/min - Descent Speed: 250kts Options: - Use NATs: yes - Use PACOTS: yes - Use low airways: yes - Use high airways: yes

Route

ESGG NEGIL ESOK

ID Type Via Altitude Latitude Longitude Leg Dist Tot Dist Heading (true) Name
O ESGG APT - 0 ft / 0 m 57.66284˚ 12.27982˚ - 0 nm - Goteborg Landvetter
NEGIL FIX - 13,200 ft / 4,023 m 58.25133˚ 12.62533˚ 37 nm 37 nm 17° / 17° -
O ESOK APT - 0 ft / 0 m 59.44863˚ 13.33854˚ 75 nm 112 nm 17° / 17° Karlstad

Altitude Profile

Advertisement - Login to hide

ESGG

Details ICAO ESGG (GOT)
Name Goteborg Landvetter
Region Sweden
Timezone Europe/Stockholm (UTC+1.0)
Stats Elevation 506 ft / 154 m (AMSL)
Location 57.662836° 12.279819°
Runways 1
Magnetic Variation 3.715° E

METAR

ESGG 140620Z 13006KT 8000 BR OVC003 00/M00 Q0979 R21/290095

Decode

TAF

TAF ESGG 140530Z 1406/1506 13007KT 7000 -SN OVC003 PROB40 1406/1412 2000 BR SCT010 TEMPO 1412/1506 1200 SN OVC005

Decode

Departure Runways

ID Width Length Bearing (true) Bearing (mag) Surface Threshold Offset Overrun Length
03 148 ft / 45 m 10,804 ft / 3,293 m 25.94° 22.23° Asphalt 0 ft / 0 m 207 ft / 63 m
21 148 ft / 45 m 10,804 ft / 3,293 m 205.96° 202.25° Asphalt 0 ft / 0 m 207 ft / 63 m

ESOK

Details ICAO ESOK (KSD)
Name Karlstad
Region Sweden
Timezone Europe/Stockholm (UTC+1.0)
Stats Elevation 352 ft / 107 m (AMSL)
Location 59.448625° 13.338536°
Runways 2
Magnetic Variation 4.255° E

METAR

ESOK 140620Z 08005KT 2000 -DZSN VV002 00/00 Q0981

Decode

TAF

Not found

Destination Runways

ID Width Length Bearing (true) Bearing (mag) Surface Threshold Offset Overrun Length
03 148 ft / 45 m 8,239 ft / 2,511 m 25.61° 21.36° Asphalt 0 ft / 0 m 100 ft / 30 m
03L 170 ft / 52 m 1,833 ft / 559 m 26.12° 21.87° Dirt 0 ft / 0 m 0 ft / 0 m
21 148 ft / 45 m 8,239 ft / 2,511 m 205.63° 201.38° Asphalt 0 ft / 0 m 100 ft / 30 m
21R 170 ft / 52 m 1,833 ft / 559 m 206.12° 201.87° Dirt 0 ft / 0 m 0 ft / 0 m

Approach Navaids

Runway Type Ident Frequency Range Bearing (true) Bearing (mag) Slope Elevation
03 Localiser SOK 109.35 MHz 18 nm / 33 km 25.63° 21.38° - 352 ft / 107 m (AMSL)
03 Glidescope SOK 109.35 MHz 10 nm / 19 km 25.62° 21.36° 3.00° 352 ft / 107 m (AMSL)
21 Localiser NOK 110.70 MHz 18 nm / 33 km 205.62° 201.37° - 352 ft / 107 m (AMSL)
21 Glidescope NOK 110.70 MHz 10 nm / 19 km 205.62° 201.36° 3.00° 352 ft / 107 m (AMSL)